Latest Coastal Weather Observations for Coolangatta

IDQ60701

Issued at 2:55 am EST Friday 31 October 2014 (issued every 10 minutes, with the page automatically refreshed every 10 minutes)

About coastal observations | Map of coastal stations | Coastal observations for QLD | Marine services | Other Formats
Station Details ID: 040717 Name: COOLANGATTA Lat: -28.17 Lon: 153.51 Height: 4.0 m
Data from the previous 72 hours. | See also: Recent months at Coolangatta
Date/Time
EST
Temp

°C
Wind Pressure Rain
since 9am
mm
Weather Cloud Vis
km
Sea
Height
m
Swell
Dir
 
Speed
knots
Gust
knots
hPa Trend Height
m
Period
s
Dir
31/02:30am 20.4 NW 5 6 1015.2 - 0.0 - Partly cloudy 10 - - - -
31/02:00am 20.5 N 5 7 1015.3 - 0.0 - Partly cloudy 10 - - - -
31/01:30am 20.8 NNW 5 7 1015.4 - 0.0 - - 10 - - - -
31/01:00am 20.4 NNW 4 5 1015.5 - 0.0 - - 10 - - - -
31/12:30am 20.9 NW 4 6 1015.6 - 0.0 - - 10 - - - -
31/12:00am 21.7 NW 5 8 1016.0 - 0.0 - Partly cloudy 10 - - - -
 
Date/Time
EST
Temp

°C
Wind Pressure Rain
since 9am
mm
Weather Cloud Vis
km
Sea
Height
m
Swell
Dir
 
Speed
knots
Gust
knots
hPa Trend Height
m
Period
s
Dir
30/11:30pm 22.1 NNW 8 10 1016.4 - 0.0 - Partly cloudy 10 - - - -
30/11:00pm 22.3 NNW 8 11 1016.8 - 0.0 - Partly cloudy 10 - - - -
30/10:30pm 22.5 NNW 9 12 1016.8 - 0.0 - Partly cloudy 10 - - - -
30/10:00pm 22.3 NNW 8 11 1016.6 - 0.0 - Partly cloudy 10 - - - -
30/09:30pm 22.1 N 8 10 1016.5 - 0.0 - Partly cloudy 10 - - - -
30/09:00pm 21.9 NNW 7 9 1016.5 - 0.0 - Mostly clear 10 - - - -
30/08:30pm 22.3 N 8 10 1016.2 - 0.0 - Partly cloudy 10 - - - -
30/08:00pm 22.4 N 9 11 1016.1 - 0.0 - Cloudy 10 - - - -
30/07:30pm 22.6 N 8 11 1015.7 - 0.0 - Partly cloudy 10 - - - -
30/07:00pm 22.7 N 9 11 1015.5 - 0.0 - Cloudy 10 - - - -
30/06:30pm 22.9 N 9 11 1015.2 - 0.0 - Cloudy 10 - - - -
30/06:00pm 22.9 NNE 7 9 1015.1 - 0.0 - Cloudy 10 - - - -
30/05:30pm 22.9 N 8 10 1014.8 - 0.0 - Cloudy 10 - - - -
30/05:00pm 23.5 NNE 9 11 1014.7 - 0.0 - - 10 - - - -
30/04:30pm 23.8 NNE 9 11 1014.5 - 0.0 - - 10 - - - -
30/04:00pm 24.1 NNE 9 13 1014.4 - 0.0 - - 10 - - - -
30/03:30pm 24.3 NNE 10 12 1014.3 - 0.0 - - 10 - - - -
30/03:00pm 25.1 NNE 10 11 1014.5 - 0.0 - - 10 - - - -
30/02:30pm 25.5 NNE 10 14 1014.5 - 0.0 - - 10 - - - -
30/02:00pm 25.5 NE 11 13 1014.8 - 0.0 - - 10 - - - -
30/01:30pm 26.3 NE 11 14 1015.2 - 0.0 - - 10 - - - -
30/01:00pm 25.8 ENE 11 15 1015.4 - 0.0 - - 10 - - - -
30/12:30pm 25.7 NE 12 15 1015.8 - 0.0 - - 10 - - - -
30/12:00pm 25.5 ENE 10 12 1016.4 - 0.0 - - 10 - - - -
30/11:30am 25.8 NE 9 12 1016.8 - 0.0 - - 10 - - - -
30/11:00am 25.0 NE 8 11 1017.1 - 0.0 - - 10 - - - -
30/10:30am 25.5 NE 7 10 1017.5 - 0.0 - - 10 - - - -
30/10:00am 25.3 NE 8 11 1017.6 - 0.0 - - 10 - - - -
30/09:30am 25.2 NE 8 13 1018.0 - 0.0 - - 10 - - - -
30/09:00am 25.2 NE 7 11 1018.3 - 0.0 - - 10 - - - -
30/08:30am 24.9 NE 7 11 1018.7 - 0.0 - - 10 - - - -
30/08:00am 24.1 SSW 3 7 1018.7 - 0.0 - Partly cloudy 10 - - - -
30/07:30am 23.7 SSE 6 8 1018.5 - 0.0 - - 10 - - - -
30/07:00am 22.9 S 5 7 1018.2 - 0.0 - - 10 - - - -
30/06:30am 20.4 SSW 1 4 1017.9 - 0.0 - - 10 - - - -
30/06:00am 18.6 S 1 3 1017.6 - 0.0 - - 10 - - - -
30/05:30am 16.8 SW 4 5 1017.3 - 0.0 - - 10 - - - -
30/05:00am 16.8 SSW 3 3 1017.0 - 0.0 - - 10 - - - -
30/04:30am 17.0 SSW 2 4 1016.7 - 0.0 - - 10 - - - -
30/04:00am 16.3 S 4 4 1016.6 - 0.0 - - 10 - - - -
30/03:30am 17.1 SW 5 5 1016.7 - 0.0 - - 10 - - - -
30/03:00am 16.2 SSW 4 5 1016.7 - 0.0 - - 10 - - - -
30/02:30am 16.5 SW 4 5 1016.7 - 0.0 - - 10 - - - -
30/02:00am 17.3 SW 3 4 1016.7 - 0.0 - - 10 - - - -
30/01:30am 17.6 SW 3 3 1016.9 - 0.0 - - 10 - - - -
30/01:00am 17.8 SSW 3 4 1017.1 - 0.0 - - 10 - - - -
30/12:30am 18.0 SW 4 5 1017.2 - 0.0 - - 10 - - - -
30/12:00am 17.9 SW 4 5 1017.6 - 0.0 - - 10 - - - -
 
Date/Time
EST
Temp

°C
Wind Pressure Rain
since 9am
mm
Weather Cloud Vis
km
Sea
Height
m
Swell
Dir
 
Speed
knots
Gust
knots
hPa Trend Height
m
Period
s
Dir
29/11:30pm 18.4 SW 4 5 1017.8 - 0.0 - - 10 - - - -
29/11:00pm 18.7 WSW 4 5 1018.0 - 0.0 - Partly cloudy 10 - - - -
29/10:30pm 18.6 WSW 4 5 1018.1 - 0.0 - - 10 - - - -
29/10:00pm 19.5 SSW 4 5 1018.1 - 0.0 - - 10 - - - -
29/09:30pm 20.0 S 4 6 1018.0 - 0.0 - - 10 - - - -
29/09:00pm 20.0 S 4 5 1018.0 - 0.0 - - 10 - - - -
29/08:30pm 19.9 S 4 6 1017.9 - 0.0 - - 10 - - - -
29/08:00pm 21.1 SSE 6 8 1017.7 - 0.0 - - 10 - - - -
29/07:30pm 21.6 SE 8 11 1017.3 - 0.0 - - 10 - - - -
29/07:00pm 21.9 SE 9 13 1016.9 - 0.0 - - 10 - - - -
29/06:30pm 22.2 SE 10 14 1016.5 - 0.0 - Partly cloudy 10 - - - -
29/06:00pm 22.5 SSE 12 16 1016.2 - 0.0 - - 10 - - - -
29/05:30pm 23.1 SSE 15 20 1015.7 - 0.0 - - 10 - - - -
29/05:00pm 23.9 SSE 14 21 1015.3 - 0.0 - - 10 - - - -
29/04:30pm 24.3 SSE 18 23 1014.9 - 0.0 - - 10 - - - -
29/04:00pm 24.8 SSE 18 26 1014.5 - 0.0 - - 10 - - - -
29/03:30pm 25.8 SSE 17 25 1014.4 - 0.0 - - 10 - - - -
29/03:00pm 25.9 SSE 19 24 1014.3 - 0.0 - - 10 - - - -
29/02:30pm 26.5 SSE 19 27 1014.3 - 0.0 - - 10 - - - -
29/02:00pm 27.7 SE 20 25 1014.4 - 0.0 - - 10 - - - -
29/01:30pm 27.4 SSE 18 25 1014.6 - 0.0 - - 10 - - - -
29/01:00pm 27.1 SSE 20 26 1014.8 - 0.0 - - 10 - - - -
29/12:30pm 27.7 SE 19 25 1015.0 - 0.0 - - 10 - - - -
29/12:00pm 28.5 SE 21 25 1015.0 - 0.0 - - 10 - - - -
29/11:30am 28.6 SE 18 25 1015.1 - 0.0 - - 10 - - - -
29/11:00am 27.7 SE 18 25 1015.2 - 0.0 - - 10 - - - -
29/10:30am 27.9 SE 19 25 1015.5 - 0.0 - - 10 - - - -
29/10:24am 27.2 SE 20 25 1015.5 - 0.0 - - 10 - - - -
29/10:00am 27.3 S 15 19 1015.6 - 0.0 - - 10 - - - -
29/09:30am 27.5 S 13 18 1015.5 - 0.0 - Partly cloudy 10 - - - -
29/09:00am 26.9 S 12 18 1015.4 - 0.0 - Mostly clear 10 - - - -
29/08:30am 25.1 S 10 15 1015.3 - 0.0 - - 10 - - - -
29/08:00am 24.9 S 11 17 1015.1 - 0.0 - - 10 - - - -
29/07:30am 24.0 S 10 14 1014.8 - 0.0 - - 10 - - - -
29/07:00am 22.4 S 10 15 1014.5 - 0.0 - - 10 - - - -
29/06:30am 20.7 S 7 9 1014.3 - 0.0 - - 10 - - - -
29/06:00am 18.5 SSE 6 9 1014.0 - 0.0 - - 10 - - - -
29/05:30am 17.0 S 5 6 1013.8 - 0.0 - - 10 - - - -
29/05:22am 16.5 S 5 6 1013.6 - 0.0 - - 10 - - - -
29/05:00am 16.3 S 2 3 1013.4 - 0.0 - - 3 - - - -
29/04:54am 16.5 S 3 3 1013.4 - 0.0 - - 6 - - - -
29/04:30am 16.8 SW 3 4 1012.9 - 0.0 - - 9 - - - -
29/04:10am 16.6 SW 5 6 1012.7 - 0.0 - - 9 - - - -
29/04:00am 17.1 SW 4 5 1012.6 - 0.0 - - 5 - - - -
29/03:30am 16.3 SW 2 3 1012.4 - 0.0 - - 4 - - - -
29/03:28am 16.3 SW 2 3 1012.4 - 0.0 - - 6 - - - -
29/03:00am 16.9 WSW 5 6 1012.0 - 0.0 - - 9 - - - -
29/02:57am 17.3 SW 4 5 1011.9 - 0.0 - - 10 - - - -
29/02:30am 16.9 S 2 4 1011.9 - 0.0 - Partly cloudy 6 - - - -
29/02:29am 16.7 S 3 5 1011.8 - 0.0 - Partly cloudy 6 - - - -
29/02:00am 17.3 S 5 5 1011.7 - 0.0 - - 10 - - - -
29/01:35am 15.9 S 3 5 1011.7 - 0.0 - - 6 - - - -
29/01:30am 16.3 SSW 3 4 1011.8 - 0.0 - - 10 - - - -
29/01:00am 17.4 SSW 5 6 1011.8 - 0.0 - - 10 - - - -
29/12:30am 17.3 SW 5 6 1011.9 - 0.0 - - 8 - - - -
29/12:29am 17.4 SW 5 6 1011.9 - 0.0 - - 8 - - - -
29/12:02am 17.5 SSW 4 5 1011.9 - 0.0 - - 6 - - - -
29/12:00am 17.5 SSW 4 5 1011.9 - 0.0 - - 8 - - - -
 
Date/Time
EST
Temp

°C
Wind Pressure Rain
since 9am
mm
Weather Cloud Vis
km
Sea
Height
m
Swell
Dir
 
Speed
knots
Gust
knots
hPa Trend Height
m
Period
s
Dir
28/11:43pm 17.4 SW 4 5 1011.9 - 0.0 - - 9 - - - -
28/11:30pm 17.5 SW 3 3 1012.1 - 0.0 - - 6 - - - -
28/11:00pm 18.1 SW 2 4 1012.3 - 0.0 - - 10 - - - -
28/10:30pm 18.1 SSW 3 4 1012.5 - 0.0 - - 10 - - - -
28/10:00pm 17.3 WSW 3 4 1012.1 - 0.0 - - 10 - - - -
28/09:30pm 17.4 CALM 0 4 1012.1 - 0.0 - - 10 - - - -
28/09:00pm 19.0 WSW 4 5 1012.3 - 0.0 - - 10 - - - -
28/08:30pm 19.3 WSW 4 4 1012.1 - 0.0 - - 10 - - - -
28/08:00pm 19.3 W 3 5 1011.9 - 0.0 - - 10 - - - -
28/07:30pm 19.8 CALM 0 0 1011.7 - 0.0 - - 10 - - - -
28/07:00pm 20.9 CALM 0 0 1011.2 - 0.0 - - 10 - - - -
28/06:30pm 21.1 SE 4 5 1011.0 - 0.0 - - 10 - - - -
28/06:00pm 22.9 SE 4 6 1010.7 - 0.0 - - 10 - - - -
28/05:30pm 24.1 SE 5 7 1010.3 - 0.0 - - 10 - - - -
28/05:00pm 24.8 E 6 9 1010.2 - 0.0 - - 10 - - - -
28/04:30pm 25.2 E 6 9 1010.2 - 0.0 - - 10 - - - -
28/04:00pm 25.2 ESE 6 11 1010.1 - 0.0 - - 10 - - - -
28/03:30pm 25.4 E 7 10 1010.3 - 0.0 - - 10 - - - -
28/03:00pm 26.4 ESE 8 11 1010.4 - 0.0 - - 10 - - - -
28/02:30pm 26.2 ESE 11 14 1010.3 - 0.0 - - 10 - - - -
28/02:00pm 26.1 SE 14 19 1010.6 - 0.0 - - 10 - - - -
28/01:30pm 27.2 SE 16 23 1010.6 - 0.0 - - 10 - - - -
28/01:00pm 26.8 SE 16 22 1010.8 - 0.0 - - 10 - - - -
28/12:30pm 28.1 SE 17 22 1011.0 - 0.0 - - 10 - - - -
28/12:00pm 27.9 SE 19 24 1011.1 - 0.0 - - 10 - - - -
28/11:30am 28.0 SSE 19 24 1011.2 - 0.0 - - 10 - - - -
28/11:00am 27.9 SSE 18 24 1011.3 - 0.0 - - 10 - - - -
28/10:30am 27.9 SSE 18 25 1011.6 - 0.0 - - 10 - - - -
28/10:00am 27.5 SSE 20 26 1011.8 - 0.0 - - 10 - - - -
28/09:30am 27.1 SE 20 27 1011.7 - 0.0 - - 10 - - - -
28/09:00am 27.8 SSE 19 28 1011.7 - 0.0 - - 10 - - - -
28/08:45am 27.5 SSE 17 27 1011.5 - 0.0 - - 10 - - - -
28/08:30am 27.0 SSE 19 27 1011.3 - 0.0 - - 10 - - - -
28/08:00am 27.4 SSE 15 23 1011.0 - 0.0 - - 10 - - - -
28/07:30am 26.9 SE 11 15 1010.7 - 0.0 - - 10 - - - -
28/07:00am 25.5 SE 15 19 1010.1 - 0.0 - - 10 - - - -
28/06:30am 27.1 SE 16 20 1009.5 - 0.0 - - 10 - - - -
28/06:28am 27.2 SSE 17 20 1009.5 - 0.0 - - 10 - - - -
28/06:00am 24.8 S 4 6 1008.5 - 0.0 - Mostly cloudy 10 - - - -
28/05:30am 23.9 SSE 5 6 1007.9 - 0.0 - - 10 - - - -
28/05:00am 23.2 WNW 3 4 1007.7 - 0.0 - - 10 - - - -
28/04:30am 24.6 E 4 6 1007.6 - 0.0 - - 10 - - - -
28/04:00am 25.3 NE 5 9 1007.5 - 0.0 - - 10 - - - -
28/03:30am 29.5 WNW 6 11 1007.3 - 0.0 - - 10 - - - -
28/03:00am 29.1 WNW 11 18 1007.2 - 0.0 - Partly cloudy 10 - - - -

Other Formats:

Comma delimited format used in spreadsheet applications
http://www.bom.gov.au/fwo/IDQ60701/IDQ60701.94592.axf

JavaScript Object Notation format (JSON) in row-major order
http://www.bom.gov.au/fwo/IDQ60701/IDQ60701.94592.json